createdAt,value
2018-11-26T00:00:35.159Z,27.93
2018-11-26T00:03:06.013Z,27.37
2018-11-26T00:05:33.597Z,31.63
2018-11-26T00:08:19.965Z,29.30
2018-11-26T00:11:27.982Z,32.57
2018-11-26T00:13:55.742Z,27.80
2018-11-26T00:16:23.327Z,27.73
2018-11-26T00:18:50.983Z,27.80
2018-11-26T00:21:18.516Z,23.57
2018-11-26T00:23:46.131Z,25.90
2018-11-26T00:26:13.647Z,27.97
2018-11-26T00:28:41.234Z,25.00
2018-11-26T00:31:08.871Z,27.17
2018-11-26T00:33:36.489Z,25.93
2018-11-26T00:36:04.044Z,28.90
2018-11-26T00:38:31.604Z,30.90
2018-11-26T00:40:59.212Z,27.03
2018-11-26T00:43:26.793Z,24.13
2018-11-26T00:45:54.394Z,28.80
2018-11-26T00:48:21.879Z,26.20
2018-11-26T00:50:49.365Z,23.80
2018-11-26T00:53:16.967Z,28.77
2018-11-26T00:55:44.546Z,27.43
2018-11-26T00:58:12.143Z,34.63
2018-11-26T01:00:39.643Z,30.53
2018-11-26T01:03:07.220Z,31.10
2018-11-26T01:05:37.054Z,29.83
2018-11-26T01:08:04.721Z,29.77
2018-11-26T01:10:32.451Z,31.17
2018-11-26T01:12:59.995Z,31.23
2018-11-26T01:15:27.547Z,32.57
2018-11-26T01:17:55.205Z,32.47
2018-11-26T01:20:22.853Z,30.83
2018-11-26T01:22:50.431Z,26.57
2018-11-26T01:25:17.961Z,31.33
2018-11-26T01:27:45.496Z,32.53
2018-11-26T01:30:13.182Z,28.57
2018-11-26T01:32:40.813Z,35.43
2018-11-26T01:35:08.521Z,31.53
2018-11-26T01:37:36.145Z,31.47
2018-11-26T01:40:04.887Z,33.63
2018-11-26T01:42:32.502Z,34.50
2018-11-26T01:45:00.052Z,32.75
2018-11-26T01:47:27.556Z,33.00
2018-11-26T01:49:55.183Z,31.02
2018-11-26T01:52:22.777Z,33.23
2018-11-26T01:54:50.337Z,31.35
2018-11-26T01:57:17.838Z,33.83
2018-11-26T01:59:45.355Z,33.23
2018-11-26T02:02:12.956Z,34.03
2018-11-26T02:04:40.567Z,33.87
2018-11-26T02:07:08.132Z,30.77
2018-11-26T02:09:35.722Z,31.97
2018-11-26T02:12:03.405Z,31.77
2018-11-26T02:14:31.017Z,33.83
2018-11-26T02:16:58.596Z,35.40
2018-11-26T02:19:26.203Z,35.50
2018-11-26T02:21:53.842Z,37.13
2018-11-26T02:24:21.374Z,38.43
2018-11-26T02:26:48.916Z,35.80
2018-11-26T02:29:16.525Z,33.67
2018-11-26T02:31:44.083Z,35.80
2018-11-26T02:34:11.632Z,35.50
2018-11-26T02:36:39.118Z,36.47
2018-11-26T02:39:06.961Z,32.50
2018-11-26T02:41:34.546Z,37.40
2018-11-26T02:44:02.146Z,34.20
2018-11-26T02:46:29.762Z,34.92
2018-11-26T02:48:57.260Z,32.95
2018-11-26T02:51:24.874Z,38.78
2018-11-26T02:53:52.490Z,34.53
2018-11-26T02:56:20.117Z,36.50
2018-11-26T02:58:47.695Z,35.37
2018-11-26T03:01:15.261Z,39.17
2018-11-26T03:03:42.909Z,40.10
2018-11-26T03:06:10.538Z,33.30
2018-11-26T03:08:38.095Z,33.63
2018-11-26T03:11:05.705Z,35.63
2018-11-26T03:13:33.317Z,39.50
2018-11-26T03:16:00.907Z,39.47
2018-11-26T03:18:28.532Z,33.13
2018-11-26T03:20:56.045Z,36.70
2018-11-26T03:23:23.566Z,43.02
2018-11-26T03:25:51.152Z,41.00
2018-11-26T03:28:18.754Z,38.23
2018-11-26T03:30:46.396Z,35.17
2018-11-26T03:33:13.966Z,37.47
2018-11-26T03:35:41.600Z,36.80
2018-11-26T03:38:12.017Z,32.87
2018-11-26T03:40:39.608Z,41.70
2018-11-26T03:43:07.189Z,42.83
2018-11-26T03:45:34.748Z,44.30
2018-11-26T03:48:02.344Z,45.00
2018-11-26T03:50:29.967Z,38.30
2018-11-26T03:52:57.466Z,32.67
2018-11-26T03:55:25.029Z,36.08
2018-11-26T03:57:52.617Z,38.78
2018-11-26T04:00:20.331Z,41.20
2018-11-26T04:02:47.901Z,32.98
2018-11-26T04:05:15.490Z,33.28
2018-11-26T04:07:43.053Z,36.50
2018-11-26T04:10:11.394Z,38.47
2018-11-26T04:12:38.997Z,35.50
2018-11-26T04:15:10.239Z,34.58
2018-11-26T04:17:37.803Z,31.37
2018-11-26T04:20:06.182Z,34.85
2018-11-26T04:22:33.713Z,40.70
2018-11-26T04:25:01.287Z,36.53
2018-11-26T04:27:28.808Z,37.50
2018-11-26T04:29:56.373Z,42.63
2018-11-26T04:32:23.876Z,35.97
2018-11-26T04:34:51.489Z,37.73
2018-11-26T04:37:19.158Z,35.13
2018-11-26T04:39:46.758Z,41.70
2018-11-26T04:42:14.452Z,38.13
2018-11-26T04:44:42.044Z,37.85
2018-11-26T04:47:09.559Z,32.80
2018-11-26T04:49:37.205Z,37.95
2018-11-26T04:52:05.003Z,39.10
2018-11-26T04:54:32.556Z,34.20
2018-11-26T04:57:00.101Z,36.83
2018-11-26T04:59:27.677Z,33.67
2018-11-26T05:01:55.261Z,35.43
2018-11-26T05:04:22.821Z,33.17
2018-11-26T05:06:50.438Z,32.28
2018-11-26T05:09:18.012Z,33.40
2018-11-26T05:11:45.596Z,42.43
2018-11-26T05:14:13.162Z,32.80
2018-11-26T05:16:40.677Z,36.17
2018-11-26T05:19:08.249Z,34.63
2018-11-26T05:21:35.883Z,35.60
2018-11-26T05:24:03.425Z,38.42
2018-11-26T05:26:31.037Z,35.75
2018-11-26T05:28:58.548Z,35.10
2018-11-26T05:31:26.091Z,32.00
2018-11-26T05:33:53.711Z,35.63
2018-11-26T05:36:21.314Z,32.63
2018-11-26T05:38:48.952Z,34.13
2018-11-26T05:41:16.636Z,30.13
2018-11-26T05:43:44.223Z,34.93
2018-11-26T05:46:12.952Z,34.10
2018-11-26T05:48:40.483Z,45.40
2018-11-26T05:51:08.133Z,33.30
2018-11-26T05:53:35.653Z,31.03
2018-11-26T05:56:03.176Z,33.37
2018-11-26T05:58:30.680Z,30.68
2018-11-26T06:00:58.207Z,38.90
2018-11-26T06:03:25.773Z,31.77
2018-11-26T06:05:53.387Z,32.13
2018-11-26T06:08:20.999Z,33.70
2018-11-26T06:10:48.605Z,31.90
2018-11-26T06:13:16.167Z,28.32
2018-11-26T06:15:43.729Z,33.13
2018-11-26T06:18:11.321Z,34.00
2018-11-26T06:20:38.918Z,28.20
2018-11-26T06:23:06.429Z,36.73
2018-11-26T06:25:34.017Z,33.45
2018-11-26T06:28:01.656Z,26.45
2018-11-26T06:30:29.258Z,26.80
2018-11-26T06:32:56.810Z,27.45
2018-11-26T06:35:24.376Z,28.30
2018-11-26T06:37:51.974Z,29.83
2018-11-26T06:40:19.609Z,32.20
2018-11-26T06:42:47.233Z,27.60
2018-11-26T06:45:20.283Z,28.73
2018-11-26T06:47:48.013Z,29.95
2018-11-26T06:50:16.560Z,26.12
2018-11-26T06:52:44.426Z,24.27
2018-11-26T06:55:13.262Z,25.87
2018-11-26T06:57:40.824Z,23.15
2018-11-26T07:00:10.028Z,26.97
2018-11-26T07:02:37.842Z,23.63
2018-11-26T07:05:09.489Z,23.95
2018-11-26T07:07:37.038Z,20.48
2018-11-26T07:10:05.461Z,24.32
2018-11-26T07:12:32.990Z,23.90
2018-11-26T07:15:00.584Z,24.75
2018-11-26T07:17:28.093Z,25.05
2018-11-26T07:19:55.692Z,21.02
2018-11-26T07:22:23.278Z,20.65
2018-11-26T07:24:50.867Z,21.37
2018-11-26T07:27:18.404Z,21.30
2018-11-26T07:29:45.970Z,19.48
2018-11-26T07:32:13.472Z,21.48
2018-11-26T07:34:41.068Z,20.45
2018-11-26T07:37:08.646Z,21.17
2018-11-26T07:39:36.310Z,21.80
2018-11-26T07:42:04.434Z,25.90
2018-11-26T07:44:31.985Z,22.42
2018-11-26T07:46:59.560Z,18.23
2018-11-26T07:49:27.090Z,22.85
2018-11-26T07:51:54.742Z,25.45
2018-11-26T07:54:22.240Z,22.67
2018-11-26T07:56:49.788Z,27.22
2018-11-26T07:59:17.296Z,25.45
2018-11-26T08:01:44.903Z,17.05
2018-11-26T08:04:12.502Z,18.00
2018-11-26T08:06:40.022Z,17.53
2018-11-26T08:09:08.193Z,18.30
2018-11-26T08:11:35.827Z,21.73
2018-11-26T08:14:03.507Z,22.52
2018-11-26T08:16:31.043Z,19.85
2018-11-26T08:18:58.609Z,20.37
2018-11-26T08:21:26.255Z,20.77
2018-11-26T08:23:53.828Z,19.85
2018-11-26T08:26:21.417Z,23.25
2018-11-26T08:28:49.041Z,34.80
2018-11-26T08:31:16.611Z,23.83
2018-11-26T08:33:44.189Z,26.82
2018-11-26T08:36:12.933Z,22.52
2018-11-26T08:38:50.303Z,23.38
2018-11-26T08:41:18.328Z,22.30
2018-11-26T08:44:02.817Z,21.42
2018-11-26T08:46:30.891Z,21.80
2018-11-26T08:49:01.481Z,20.37
2018-11-26T08:51:29.276Z,20.15
2018-11-26T08:53:56.830Z,18.30
2018-11-26T08:56:24.406Z,23.27
2018-11-26T08:58:51.977Z,20.23
2018-11-26T09:01:24.130Z,22.60
2018-11-26T09:03:55.741Z,23.50
2018-11-26T09:06:23.509Z,21.48
2018-11-26T09:08:51.003Z,22.60
2018-11-26T09:11:18.581Z,21.57
2018-11-26T09:13:46.185Z,25.12
2018-11-26T09:16:13.791Z,26.17
2018-11-26T09:18:41.372Z,24.37
2018-11-26T09:21:08.948Z,27.75
2018-11-26T09:23:36.545Z,32.03
2018-11-26T09:26:04.291Z,45.43
2018-11-26T09:28:31.900Z,32.07
2018-11-26T09:30:59.421Z,31.60
2018-11-26T09:33:26.992Z,30.08
2018-11-26T09:35:54.581Z,31.42
2018-11-26T09:38:22.247Z,34.10
2018-11-26T09:40:49.928Z,33.10
2018-11-26T09:43:17.413Z,32.77
2018-11-26T09:45:44.937Z,33.17
2018-11-26T09:48:12.452Z,30.20
2018-11-26T09:50:40.066Z,30.73
2018-11-26T09:53:07.656Z,29.75
2018-11-26T09:55:35.281Z,32.10
2018-11-26T09:58:02.879Z,29.18
2018-11-26T10:00:30.393Z,30.07
2018-11-26T10:02:57.997Z,32.30
2018-11-26T10:05:25.851Z,33.53
2018-11-26T10:07:53.465Z,34.53
2018-11-26T10:10:21.086Z,31.50
2018-11-26T10:12:48.653Z,37.00
2018-11-26T10:15:18.431Z,33.33
2018-11-26T10:17:46.742Z,34.67
2018-11-26T10:20:14.311Z,37.90
2018-11-26T10:22:42.363Z,32.88
2018-11-26T10:25:11.157Z,37.20
2018-11-26T10:27:38.793Z,37.08
2018-11-26T10:30:11.430Z,35.20
2018-11-26T10:32:39.298Z,34.53
2018-11-26T10:35:09.415Z,34.53
2018-11-26T10:37:37.064Z,32.23
2018-11-26T10:40:09.916Z,32.27
2018-11-26T10:42:37.408Z,31.50
2018-11-26T10:45:06.699Z,34.10
2018-11-26T10:47:34.325Z,33.47
2018-11-26T10:50:01.892Z,33.60
2018-11-26T10:52:29.479Z,34.13
2018-11-26T10:54:57.143Z,34.50
2018-11-26T10:57:24.807Z,36.87
2018-11-26T10:59:52.425Z,34.07
2018-11-26T11:02:25.550Z,34.18
2018-11-26T11:04:53.022Z,36.20
2018-11-26T11:07:20.630Z,40.95
2018-11-26T11:09:48.136Z,35.23
2018-11-26T11:12:15.648Z,33.53
2018-11-26T11:14:43.271Z,34.17
2018-11-26T11:17:10.838Z,33.57
2018-11-26T11:19:39.593Z,36.53
2018-11-26T11:22:06.354Z,36.83
2018-11-26T11:24:34.433Z,33.70
2018-11-26T11:27:01.938Z,31.13
2018-11-26T11:29:29.487Z,32.00
2018-11-26T11:31:57.071Z,34.40
2018-11-26T11:34:24.569Z,36.00
2018-11-26T11:36:52.094Z,35.33
2018-11-26T11:39:19.645Z,34.67
2018-11-26T11:41:47.135Z,33.03
2018-11-26T11:44:14.722Z,33.70
2018-11-26T11:46:42.249Z,32.70
2018-11-26T11:49:09.827Z,50.37
2018-11-26T11:51:37.363Z,33.90
2018-11-26T11:54:05.067Z,41.47
2018-11-26T11:56:32.622Z,37.87
2018-11-26T11:59:00.245Z,35.60
2018-11-26T12:01:27.747Z,34.40
2018-11-26T12:03:55.275Z,37.17
2018-11-26T12:06:22.775Z,34.10
2018-11-26T12:08:50.460Z,35.10
2018-11-26T12:11:18.017Z,32.63
2018-11-26T12:13:45.635Z,34.87
2018-11-26T12:16:13.291Z,36.77
2018-11-26T12:18:40.826Z,35.47
2018-11-26T12:21:08.416Z,37.87
2018-11-26T12:23:35.992Z,40.40
2018-11-26T12:26:03.526Z,33.00
2018-11-26T12:28:30.996Z,36.20
2018-11-26T12:30:58.511Z,36.40
2018-11-26T12:33:26.044Z,36.93
2018-11-26T12:35:53.678Z,33.13
2018-11-26T12:38:21.175Z,37.03
2018-11-26T12:40:48.787Z,38.57
2018-11-26T12:43:16.385Z,42.10
2018-11-26T12:45:43.962Z,35.87
2018-11-26T12:48:11.597Z,37.43
2018-11-26T12:50:39.130Z,37.30
2018-11-26T12:53:06.746Z,42.80
2018-11-26T12:55:36.510Z,36.40
2018-11-26T12:58:04.812Z,40.73
2018-11-26T13:00:32.342Z,38.87
2018-11-26T13:03:07.188Z,38.53
2018-11-26T13:05:34.973Z,35.90
2018-11-26T13:08:02.613Z,42.75
2018-11-26T13:10:30.222Z,41.40
2018-11-26T13:12:57.842Z,33.70
2018-11-26T13:15:26.635Z,39.70
2018-11-26T13:17:54.187Z,40.37
2018-11-26T13:20:23.555Z,38.87
2018-11-26T13:22:51.811Z,38.70
2018-11-26T13:25:21.965Z,33.60
2018-11-26T13:27:51.605Z,38.43
2018-11-26T13:30:22.208Z,36.30
2018-11-26T13:32:51.128Z,38.43
2018-11-26T13:35:19.111Z,43.20
2018-11-26T13:37:46.792Z,37.37
2018-11-26T13:40:15.637Z,40.70
2018-11-26T13:42:43.615Z,46.00
2018-11-26T13:45:15.920Z,37.73
2018-11-26T13:47:43.556Z,40.03
2018-11-26T13:50:20.569Z,41.73
2018-11-26T13:52:48.300Z,44.27
2018-11-26T13:55:16.063Z,45.60
2018-11-26T13:57:43.790Z,38.03
2018-11-26T14:00:12.716Z,36.10
2018-11-26T14:02:40.410Z,42.70
2018-11-26T14:05:10.361Z,36.37
2018-11-26T14:07:38.088Z,42.67
2018-11-26T14:10:10.327Z,44.33
2018-11-26T14:12:38.024Z,45.47
2018-11-26T14:15:08.155Z,40.40
2018-11-26T14:17:35.812Z,38.10
2018-11-26T14:20:04.257Z,36.33
2018-11-26T14:22:31.867Z,35.10
2018-11-26T14:24:59.518Z,46.07
2018-11-26T14:27:27.059Z,40.93
2018-11-26T14:29:54.757Z,44.07
2018-11-26T14:32:22.438Z,41.13
2018-11-26T14:34:50.081Z,50.30
2018-11-26T14:37:17.784Z,47.17
2018-11-26T14:39:45.417Z,43.83
2018-11-26T14:42:13.027Z,41.17
2018-11-26T14:44:40.682Z,42.53
2018-11-26T14:47:08.322Z,40.00
2018-11-26T14:49:35.894Z,44.40
2018-11-26T14:52:03.671Z,45.73
2018-11-26T14:54:31.376Z,42.63
2018-11-26T14:56:59.078Z,41.67
2018-11-26T14:59:26.730Z,46.33
2018-11-26T15:02:00.880Z,46.73
2018-11-26T15:04:28.446Z,40.43
2018-11-26T15:06:56.053Z,44.17
2018-11-26T15:09:23.664Z,47.70
2018-11-26T15:11:51.274Z,43.20
2018-11-26T15:14:19.038Z,40.23
2018-11-26T15:16:46.587Z,47.60
2018-11-26T15:19:14.252Z,42.20
2018-11-26T15:21:41.909Z,43.63
2018-11-26T15:24:09.570Z,41.60
2018-11-26T15:26:37.223Z,45.33
2018-11-26T15:29:04.937Z,47.90
2018-11-26T15:31:32.620Z,43.53
2018-11-26T15:34:00.504Z,39.10
2018-11-26T15:36:28.201Z,43.47
2018-11-26T15:38:55.835Z,42.63
2018-11-26T15:41:23.424Z,38.00
2018-11-26T15:43:51.019Z,43.53
2018-11-26T15:46:18.888Z,43.97
2018-11-26T15:48:46.415Z,39.70
2018-11-26T15:51:13.995Z,47.23
2018-11-26T15:53:41.517Z,41.03
2018-11-26T15:56:10.672Z,42.00
2018-11-26T15:58:39.185Z,44.63
2018-11-26T16:03:46.298Z,45.10
2018-11-26T16:06:13.973Z,42.33
2018-11-26T16:08:41.615Z,36.50
2018-11-26T16:11:09.224Z,46.50
2018-11-26T16:13:36.800Z,42.37
2018-11-26T16:16:04.606Z,41.60
2018-11-26T16:18:32.307Z,48.03
2018-11-26T16:20:59.773Z,46.03
2018-11-26T16:23:27.365Z,44.27
2018-11-26T16:25:54.977Z,48.03
2018-11-26T16:28:23.019Z,45.47
2018-11-26T16:30:51.026Z,39.17
2018-11-26T16:33:18.722Z,46.90
2018-11-26T16:35:46.281Z,39.63
2018-11-26T16:38:14.019Z,38.10
2018-11-26T16:40:41.662Z,39.57
2018-11-26T16:43:09.435Z,36.40
2018-11-26T16:45:37.051Z,34.57
2018-11-26T16:48:05.010Z,41.37
2018-11-26T16:50:33.732Z,37.30
2018-11-26T16:53:01.533Z,35.63
2018-11-26T16:55:29.235Z,32.20
2018-11-26T16:57:56.881Z,40.90
2018-11-26T17:00:27.543Z,31.17
2018-11-26T17:02:57.165Z,30.88
2018-11-26T17:05:27.177Z,34.73
2018-11-26T17:07:54.807Z,28.63
2018-11-26T17:10:22.530Z,33.53
2018-11-26T17:12:50.104Z,31.70
2018-11-26T17:15:18.000Z,31.07
2018-11-26T17:17:45.606Z,31.80
2018-11-26T17:20:14.089Z,32.40
2018-11-26T17:22:41.859Z,31.63
2018-11-26T17:25:10.830Z,30.73
2018-11-26T17:27:39.232Z,32.80
2018-11-26T17:30:12.779Z,31.10
2018-11-26T17:32:40.466Z,31.60
2018-11-26T17:35:10.039Z,30.47
2018-11-26T17:37:42.606Z,27.03
2018-11-26T17:40:07.359Z,32.93
2018-11-26T17:42:34.926Z,32.40
2018-11-26T17:45:02.647Z,29.53
2018-11-26T17:47:30.171Z,37.03
2018-11-26T17:49:57.735Z,34.00
2018-11-26T17:52:25.298Z,27.27
2018-11-26T17:54:53.018Z,33.10
2018-11-26T17:57:20.521Z,31.67
2018-11-26T17:59:48.325Z,34.90
2018-11-26T18:02:15.899Z,28.13
2018-11-26T18:04:43.440Z,35.43
2018-11-26T18:07:11.031Z,36.00
2018-11-26T18:09:38.585Z,32.73
2018-11-26T18:12:06.615Z,31.20
2018-11-26T18:14:34.163Z,29.07
2018-11-26T18:17:01.754Z,40.28
2018-11-26T18:19:29.332Z,36.00
2018-11-26T18:21:56.878Z,31.50
2018-11-26T18:24:24.447Z,32.17
2018-11-26T18:26:52.055Z,36.03
2018-11-26T18:29:19.633Z,36.57
2018-11-26T18:31:47.210Z,30.63
2018-11-26T18:34:14.812Z,37.73
2018-11-26T18:36:42.278Z,35.23
2018-11-26T18:39:10.186Z,35.73
2018-11-26T18:41:37.846Z,34.80
2018-11-26T18:44:06.039Z,33.73
2018-11-26T18:46:33.667Z,34.93
2018-11-26T18:49:01.160Z,32.87
2018-11-26T18:51:28.699Z,34.10
2018-11-26T18:53:56.323Z,35.70
2018-11-26T18:56:23.880Z,32.90
2018-11-26T18:58:51.459Z,36.10
2018-11-26T19:01:18.967Z,42.63
2018-11-26T19:03:46.499Z,36.90
2018-11-26T19:06:14.095Z,38.50
2018-11-26T19:08:41.583Z,39.77
2018-11-26T19:11:11.315Z,35.67
2018-11-26T19:13:54.497Z,39.37
2018-11-26T19:16:25.155Z,36.77
2018-11-26T19:18:52.754Z,38.90
2018-11-26T19:21:20.262Z,42.13
2018-11-26T19:23:47.835Z,37.35
2018-11-26T19:26:15.426Z,33.67
2018-11-26T19:28:42.946Z,39.05
2018-11-26T19:31:10.452Z,33.55
2018-11-26T19:33:38.071Z,36.58
2018-11-26T19:36:06.281Z,37.48
2018-11-26T19:38:33.839Z,35.52
2018-11-26T19:41:01.331Z,28.87
2018-11-26T19:43:28.904Z,34.88
2018-11-26T19:45:56.467Z,39.07
2018-11-26T19:48:24.104Z,32.90
2018-11-26T19:50:51.674Z,34.60
2018-11-26T19:53:19.196Z,31.53
2018-11-26T19:55:46.726Z,39.17
2018-11-26T19:58:14.344Z,29.80
2018-11-26T20:00:41.808Z,29.83
2018-11-26T20:03:11.972Z,35.20
2018-11-26T20:05:45.247Z,30.07
2018-11-26T20:08:12.844Z,33.43
2018-11-26T20:10:40.406Z,34.13
2018-11-26T20:13:07.984Z,37.40
2018-11-26T20:15:35.607Z,34.80
2018-11-26T20:18:03.146Z,35.13
2018-11-26T20:20:30.737Z,36.30
2018-11-26T20:22:58.275Z,36.20
2018-11-26T20:25:25.840Z,32.50
2018-11-26T20:27:53.427Z,33.13
2018-11-26T20:30:21.124Z,39.10
2018-11-26T20:32:48.721Z,36.88
2018-11-26T20:35:16.338Z,33.53
2018-11-26T20:37:43.861Z,32.25
2018-11-26T20:40:12.676Z,35.88
2018-11-26T20:42:42.872Z,32.43
2018-11-26T20:45:11.991Z,32.90
2018-11-26T20:47:39.474Z,31.33
2018-11-26T20:50:10.940Z,32.53
2018-11-26T20:52:38.485Z,28.10
2018-11-26T20:55:08.682Z,30.97
2018-11-26T20:57:36.212Z,30.35
2018-11-26T21:00:04.884Z,25.60
2018-11-26T21:02:32.510Z,26.53
2018-11-26T21:05:00.173Z,29.32
2018-11-26T21:07:27.733Z,31.07
2018-11-26T21:09:55.403Z,29.47
2018-11-26T21:12:22.948Z,24.60
2018-11-26T21:14:50.453Z,24.00
2018-11-26T21:17:18.056Z,27.77
2018-11-26T21:19:49.773Z,29.23
2018-11-26T21:22:13.283Z,26.97
2018-11-26T21:24:40.888Z,25.73
2018-11-26T21:27:08.554Z,24.93
2018-11-26T21:29:36.146Z,27.80
2018-11-26T21:32:03.816Z,27.30
2018-11-26T21:34:31.446Z,27.23
2018-11-26T21:36:59.027Z,28.00
2018-11-26T21:39:26.544Z,26.30
2018-11-26T21:41:54.153Z,26.43
2018-11-26T21:44:21.689Z,28.67
2018-11-26T21:46:52.970Z,27.07
2018-11-26T21:49:16.904Z,29.60
2018-11-26T21:51:44.547Z,23.63
2018-11-26T21:54:12.220Z,28.00
2018-11-26T21:56:39.763Z,25.50
2018-11-26T21:59:07.288Z,26.40
2018-11-26T22:01:34.928Z,30.87
2018-11-26T22:04:02.439Z,29.73
2018-11-26T22:06:30.048Z,37.27
2018-11-26T22:08:57.682Z,32.60
2018-11-26T22:11:30.208Z,27.33
2018-11-26T22:13:52.854Z,23.83
2018-11-26T22:16:20.438Z,29.87
2018-11-26T22:18:48.038Z,27.60
2018-11-26T22:21:15.604Z,28.00
2018-11-26T22:23:43.271Z,26.12
2018-11-26T22:26:11.048Z,27.20
2018-11-26T22:28:38.662Z,27.80
2018-11-26T22:31:06.268Z,28.27
2018-11-26T22:33:33.927Z,27.87
2018-11-26T22:36:01.453Z,27.23
2018-11-26T22:38:29.105Z,25.93
2018-11-26T22:40:56.605Z,29.30
2018-11-26T22:43:24.120Z,26.97
2018-11-26T22:45:51.605Z,27.10
2018-11-26T22:48:19.153Z,28.97
2018-11-26T22:50:46.743Z,27.83
2018-11-26T22:53:14.283Z,29.90
2018-11-26T22:55:41.880Z,26.87
2018-11-26T22:58:12.672Z,26.77
2018-11-26T23:00:45.996Z,25.00
2018-11-26T23:03:15.082Z,26.65
2018-11-26T23:05:42.679Z,27.02
2018-11-26T23:08:10.236Z,29.48
2018-11-26T23:10:37.927Z,26.35
2018-11-26T23:13:06.402Z,29.42
2018-11-26T23:15:33.918Z,30.10
2018-11-26T23:18:01.453Z,30.82
2018-11-26T23:20:29.054Z,30.00
2018-11-26T23:22:56.573Z,31.85
2018-11-26T23:25:24.139Z,31.17
2018-11-26T23:27:51.729Z,30.37
2018-11-26T23:30:20.473Z,32.55
2018-11-26T23:32:49.267Z,30.80
2018-11-26T23:35:16.885Z,29.98
2018-11-26T23:37:44.500Z,30.68
2018-11-26T23:40:12.611Z,32.15
2018-11-26T23:42:40.200Z,32.60
2018-11-26T23:45:12.953Z,31.30
2018-11-26T23:47:40.567Z,33.78
2018-11-26T23:50:09.668Z,32.35
2018-11-26T23:52:38.898Z,29.48
2018-11-26T23:55:07.948Z,27.62
2018-11-26T23:57:35.531Z,24.50
